Time;durP1;ratioP1;P1;durP2;ratioP2;P2;SDS_P1;SDS_P2;PMS_P1;PMS_P2;Temp;Humidity;BMP_temperature;BMP_pressure;BME280_temperature;BME280_humidity;BME280_pressure;Samples;Min_cycle;Max_cycle;Signal;HPM_P1;HPM_P2
2024/04/14 05:01:44;;;;;;;15.03;8.30;;;;;;;;;;5747676;21;20544;-74
2024/04/14 05:04:11;;;;;;;16.13;8.90;;;;;;;;;;5281937;27;20503;-74
2024/04/14 05:06:37;;;;;;;19.33;8.60;;;;;;;;;;5311371;27;20869;-74
2024/04/14 05:09:03;;;;;;;13.73;7.80;;;;;;;;;;5312199;27;20508;-74
2024/04/14 05:11:29;;;;;;;14.27;8.90;;;;;;;;;;5262592;27;20466;-74
2024/04/14 05:13:55;;;;;;;18.53;9.90;;;;;;;;;;5277796;27;20438;-74
2024/04/14 05:16:22;;;;;;;13.67;8.43;;;;;;;;;;5277125;27;20750;-75
2024/04/14 05:18:48;;;;;;;20.67;10.67;;;;;;;;;;5269555;27;20535;-75
2024/04/14 05:21:14;;;;;;;12.30;8.13;;;;;;;;;;5288090;26;20474;-75
2024/04/14 05:23:40;;;;;;;12.87;7.60;;;;;;;;;;5300766;27;20496;-75
2024/04/14 05:26:06;;;;;;;14.23;9.33;;;;;;;;;;5310446;27;20552;-74
2024/04/14 05:28:32;;;;;;;15.57;9.27;;;;;;;;;;5310836;27;21019;-74
2024/04/14 05:30:58;;;;;;;16.67;9.47;;;;;;;;;;5309184;26;20468;-74
2024/04/14 05:33:24;;;;;;;15.20;9.73;;;;;;;;;;5311686;27;20484;-73
2024/04/14 05:35:54;;;;;;;13.40;9.07;;;;;;;;;;5310907;27;20445;-75
2024/04/14 05:38:20;;;;;;;18.17;9.97;;;;;;;;;;5311138;27;20566;-75
2024/04/14 05:40:46;;;;;;;15.20;9.40;;;;;;;;;;5310898;26;20588;-76
2024/04/14 05:43:12;;;;;;;17.23;10.17;;;;;;;;;;5310964;27;20453;-75
2024/04/14 05:45:38;;;;;;;16.70;11.17;;;;;;;;;;5283606;27;20449;-76
2024/04/14 05:48:04;;;;;;;16.27;10.23;;;;;;;;;;5330118;27;20445;-75
2024/04/14 05:50:30;;;;;;;16.10;9.90;;;;;;;;;;5313647;26;20464;-74
2024/04/14 05:52:56;;;;;;;18.53;9.97;;;;;;;;;;5314460;27;20875;-75
2024/04/14 05:55:22;;;;;;;20.33;9.87;;;;;;;;;;5304148;27;20510;-75
2024/04/14 05:57:48;;;;;;;18.87;10.60;;;;;;;;;;5303832;27;20445;-75
2024/04/14 06:00:14;;;;;;;23.47;10.90;;;;;;;;;;5333763;26;20547;-77
2024/04/14 06:02:40;;;;;;;18.10;9.57;;;;;;;;;;5304430;27;20602;-78
2024/04/14 06:05:06;;;;;;;13.90;9.10;;;;;;;;;;5313970;26;20588;-75
2024/04/14 06:07:32;;;;;;;13.63;10.23;;;;;;;;;;5311964;27;21003;-75
2024/04/14 06:09:59;;;;;;;20.07;10.00;;;;;;;;;;5310564;27;20449;-71
2024/04/14 06:12:25;;;;;;;16.53;10.40;;;;;;;;;;5310411;26;20465;-73
2024/04/14 06:14:51;;;;;;;11.53;7.67;;;;;;;;;;5310263;27;20514;-73
2024/04/14 06:17:17;;;;;;;14.73;10.17;;;;;;;;;;5310173;27;20647;-72
2024/04/14 06:19:43;;;;;;;16.53;10.10;;;;;;;;;;5310693;27;20445;-72
2024/04/14 06:22:09;;;;;;;13.73;9.07;;;;;;;;;;5310611;26;20501;-72
2024/04/14 06:24:34;;;;;;;14.17;7.60;;;;;;;;;;5310321;27;20776;-72
2024/04/14 06:27:00;;;;;;;14.60;8.13;;;;;;;;;;5309991;27;20452;-71
2024/04/14 06:29:27;;;;;;;15.50;9.70;;;;;;;;;;5310674;27;20453;-72
2024/04/14 06:31:53;;;;;;;10.97;8.70;;;;;;;;;;5310584;26;20525;-71
2024/04/14 06:34:19;;;;;;;16.33;8.83;;;;;;;;;;5311028;27;20445;-72
2024/04/14 06:36:45;;;;;;;13.50;8.57;;;;;;;;;;5309930;27;20460;-73
2024/04/14 06:39:11;;;;;;;13.10;8.40;;;;;;;;;;5310255;27;20845;-73
2024/04/14 06:41:37;;;;;;;11.30;7.80;;;;;;;;;;5310183;26;20580;-74
2024/04/14 06:44:03;;;;;;;15.73;8.97;;;;;;;;;;5309994;27;20464;-74
2024/04/14 06:46:29;;;;;;;11.90;7.60;;;;;;;;;;5279297;27;20513;-75
2024/04/14 06:48:55;;;;;;;13.00;8.03;;;;;;;;;;5279599;27;20476;-75
2024/04/14 06:51:21;;;;;;;18.50;8.03;;;;;;;;;;5274965;27;20598;-77
2024/04/14 06:53:47;;;;;;;10.20;6.90;;;;;;;;;;5242595;27;20448;-76
2024/04/14 06:56:13;;;;;;;11.90;7.67;;;;;;;;;;5212081;27;20455;-75
2024/04/14 06:58:39;;;;;;;13.57;7.80;;;;;;;;;;5241540;27;20783;-75
2024/04/14 07:01:05;;;;;;;14.27;7.93;;;;;;;;;;5242099;27;20471;-75
2024/04/14 07:03:31;;;;;;;12.30;7.60;;;;;;;;;;5212632;27;20987;-75
2024/04/14 07:05:57;;;;;;;11.90;6.80;;;;;;;;;;5241771;27;20503;-75
2024/04/14 07:08:23;;;;;;;15.33;7.37;;;;;;;;;;5212266;27;20507;-75
2024/04/14 07:10:49;;;;;;;11.20;7.00;;;;;;;;;;5241577;27;20476;-75
2024/04/14 07:13:15;;;;;;;11.90;7.60;;;;;;;;;;5241630;27;20485;-74
2024/04/14 07:15:41;;;;;;;16.43;8.60;;;;;;;;;;5241313;27;20533;-75
2024/04/14 07:18:07;;;;;;;18.03;7.50;;;;;;;;;;5248223;27;20473;-74
2024/04/14 07:20:36;;;;;;;15.23;6.87;;;;;;;;;;5274684;26;20597;-75
2024/04/14 07:23:02;;;;;;;9.03;6.83;;;;;;;;;;5287363;27;20511;-75
2024/04/14 07:25:28;;;;;;;10.30;6.43;;;;;;;;;;5243349;27;20527;-75
2024/04/14 07:27:53;;;;;;;12.67;7.13;;;;;;;;;;5244660;27;20451;-75
2024/04/14 07:30:20;;;;;;;10.77;6.70;;;;;;;;;;5243046;27;20513;-75
2024/04/14 07:32:46;;;;;;;9.30;6.30;;;;;;;;;;5244079;27;20575;-75
2024/04/14 07:35:12;;;;;;;10.47;6.40;;;;;;;;;;5244259;27;20554;-75
2024/04/14 07:37:38;;;;;;;9.83;7.20;;;;;;;;;;5215083;27;20958;-74
2024/04/14 07:40:04;;;;;;;7.77;5.90;;;;;;;;;;5244548;27;20443;-75
2024/04/14 07:42:30;;;;;;;11.70;6.53;;;;;;;;;;5244374;27;20463;-75
2024/04/14 07:44:56;;;;;;;13.63;7.20;;;;;;;;;;5269827;27;20512;-75
2024/04/14 07:47:22;;;;;;;9.80;6.23;;;;;;;;;;5244201;27;20451;-75
2024/04/14 07:49:48;;;;;;;11.40;6.90;;;;;;;;;;5244653;27;20447;-75
2024/04/14 07:52:14;;;;;;;8.80;6.00;;;;;;;;;;5244530;27;20468;-75
2024/04/14 07:54:40;;;;;;;10.40;7.63;;;;;;;;;;5244594;27;20455;-75
2024/04/14 07:57:09;;;;;;;14.80;6.77;;;;;;;;;;5243996;27;20455;-76
2024/04/14 07:59:35;;;;;;;11.77;6.60;;;;;;;;;;5245398;27;20583;-75
2024/04/14 08:02:02;;;;;;;8.17;6.07;;;;;;;;;;5244754;27;20579;-75
2024/04/14 08:04:28;;;;;;;9.00;6.20;;;;;;;;;;5244186;27;20971;-75
2024/04/14 08:06:54;;;;;;;13.60;6.20;;;;;;;;;;5243836;27;20502;-75
2024/04/14 08:09:20;;;;;;;9.77;6.33;;;;;;;;;;5243632;27;20448;-75
2024/04/14 08:11:46;;;;;;;10.70;6.50;;;;;;;;;;5244074;27;20509;-72
2024/04/14 08:14:13;;;;;;;8.10;5.80;;;;;;;;;;5244705;27;20463;-75
2024/04/14 08:16:39;;;;;;;11.23;6.27;;;;;;;;;;5243839;27;20444;-75
2024/04/14 08:19:05;;;;;;;9.83;6.00;;;;;;;;;;5243801;27;20990;-74
2024/04/14 08:21:31;;;;;;;10.00;5.97;;;;;;;;;;5214089;27;21140;-75
2024/04/14 08:23:57;;;;;;;7.20;5.47;;;;;;;;;;5245043;27;20528;-75
2024/04/14 08:26:23;;;;;;;7.63;4.20;;;;;;;;;;5243932;27;20448;-75
2024/04/14 08:28:49;;;;;;;7.47;4.90;;;;;;;;;;5243943;27;20571;-75
2024/04/14 08:31:15;;;;;;;7.57;3.87;;;;;;;;;;5213818;27;20543;-75
2024/04/14 08:33:41;;;;;;;7.50;3.93;;;;;;;;;;5243203;27;20443;-75
2024/04/14 08:36:07;;;;;;;5.57;4.03;;;;;;;;;;5243708;27;20455;-74
2024/04/14 08:38:33;;;;;;;9.00;4.60;;;;;;;;;;5214246;27;20510;-75
2024/04/14 08:40:59;;;;;;;6.33;4.50;;;;;;;;;;5244383;27;20572;-76
2024/04/14 08:43:26;;;;;;;5.70;3.37;;;;;;;;;;5243228;27;20451;-75
2024/04/14 08:45:52;;;;;;;6.47;4.10;;;;;;;;;;5243385;27;20451;-75
2024/04/14 08:48:19;;;;;;;5.53;3.67;;;;;;;;;;5243882;27;20504;-76
2024/04/14 08:50:46;;;;;;;4.33;2.93;;;;;;;;;;5244173;27;20591;-75
2024/04/14 08:53:13;;;;;;;3.87;3.17;;;;;;;;;;5213828;27;21374;-74
2024/04/14 08:55:39;;;;;;;5.33;3.33;;;;;;;;;;5243014;27;21014;-75
2024/04/14 08:58:05;;;;;;;4.80;3.43;;;;;;;;;;5243387;27;20493;-75
2024/04/14 09:00:32;;;;;;;6.77;3.73;;;;;;;;;;5243243;27;20464;-76
2024/04/14 09:02:59;;;;;;;3.53;2.90;;;;;;;;;;5243546;27;20455;-75
2024/04/14 09:05:25;;;;;;;4.60;2.80;;;;;;;;;;5243529;27;20939;-75
2024/04/14 09:07:56;;;;;;;4.30;2.87;;;;;;;;;;5243297;27;20499;-74
2024/04/14 09:10:23;;;;;;;5.20;3.27;;;;;;;;;;5243745;27;20565;-75
2024/04/14 09:12:49;;;;;;;6.37;3.50;;;;;;;;;;5213955;27;20921;-75
2024/04/14 09:15:15;;;;;;;7.03;3.30;;;;;;;;;;5243054;27;20444;-75
2024/04/14 09:17:41;;;;;;;6.50;3.50;;;;;;;;;;5243045;27;20504;-75
2024/04/14 09:20:07;;;;;;;11.20;3.53;;;;;;;;;;5244770;27;20504;-74
2024/04/14 09:22:33;;;;;;;6.87;3.90;;;;;;;;;;5278371;27;20474;-76
2024/04/14 09:24:59;;;;;;;4.20;3.53;;;;;;;;;;5299996;27;20465;-75
2024/04/14 09:27:25;;;;;;;7.17;4.10;;;;;;;;;;5308664;27;20448;-75
2024/04/14 09:29:53;;;;;;;5.17;3.30;;;;;;;;;;5311801;27;20580;-74
2024/04/14 09:32:19;;;;;;;4.77;3.43;;;;;;;;;;5305393;26;20461;-75
2024/04/14 09:34:46;;;;;;;4.13;3.30;;;;;;;;;;5276405;27;20517;-76
2024/04/14 09:37:12;;;;;;;3.93;3.13;;;;;;;;;;5275822;27;20573;-74
2024/04/14 09:39:38;;;;;;;8.27;4.13;;;;;;;;;;5275893;27;20446;-74
2024/04/14 09:42:05;;;;;;;13.10;4.20;;;;;;;;;;5275945;27;21001;-73
2024/04/14 09:44:32;;;;;;;7.30;3.70;;;;;;;;;;5275532;27;20435;-73
2024/04/14 09:46:59;;;;;;;14.87;3.70;;;;;;;;;;5275454;27;20450;-75
2024/04/14 09:49:28;;;;;;;7.47;3.60;;;;;;;;;;5275887;27;21030;-74
2024/04/14 09:51:54;;;;;;;8.03;3.30;;;;;;;;;;5274951;27;20533;-75
2024/04/14 09:54:22;;;;;;;4.27;3.10;;;;;;;;;;5275752;27;20486;-75
2024/04/14 09:56:48;;;;;;;9.20;3.57;;;;;;;;;;5275695;27;20539;-75
2024/04/14 09:59:14;;;;;;;7.20;3.20;;;;;;;;;;5275801;27;20458;-78
2024/04/14 10:01:41;;;;;;;7.00;3.67;;;;;;;;;;5275190;27;20525;-76
2024/04/14 10:04:07;;;;;;;6.83;3.70;;;;;;;;;;5275765;27;20518;-74
2024/04/14 10:06:34;;;;;;;8.90;3.90;;;;;;;;;;5275260;27;21044;-75
2024/04/14 10:09:01;;;;;;;9.03;4.30;;;;;;;;;;5276446;27;20514;-74
2024/04/14 10:11:27;;;;;;;6.70;3.70;;;;;;;;;;5277000;27;20601;-74
2024/04/14 10:13:54;;;;;;;5.20;2.93;;;;;;;;;;5276059;27;20442;-73
2024/04/14 10:16:21;;;;;;;4.80;3.10;;;;;;;;;;5275664;27;20462;-76
2024/04/14 10:18:47;;;;;;;8.30;3.60;;;;;;;;;;5245203;27;20494;-75
2024/04/14 10:21:17;;;;;;;5.47;3.60;;;;;;;;;;5242083;27;20486;-74
2024/04/14 10:23:45;;;;;;;9.57;3.80;;;;;;;;;;5242462;27;20460;-74
2024/04/14 10:26:15;;;;;;;10.93;3.83;;;;;;;;;;5212545;27;20886;-73
2024/04/14 10:28:51;;;;;;;6.83;3.20;;;;;;;;;;5241957;27;20566;-73
2024/04/14 10:31:35;;;;;;;5.77;3.77;;;;;;;;;;5241737;27;20467;-74
2024/04/14 10:34:01;;;;;;;5.60;3.57;;;;;;;;;;5211998;27;20566;-74
2024/04/14 10:36:27;;;;;;;7.53;3.40;;;;;;;;;;5241199;27;20470;-75
2024/04/14 10:38:53;;;;;;;7.10;3.70;;;;;;;;;;5241770;27;20224;-74
2024/04/14 10:41:19;;;;;;;10.27;3.47;;;;;;;;;;5212003;27;20518;-74
2024/04/14 10:43:45;;;;;;;10.10;3.60;;;;;;;;;;5241650;27;20798;-74
2024/04/14 10:46:11;;;;;;;8.53;2.90;;;;;;;;;;5249699;27;20870;-74
2024/04/14 10:48:44;;;;;;;5.03;3.50;;;;;;;;;;5274941;27;20506;-75
2024/04/14 10:51:10;;;;;;;8.27;2.93;;;;;;;;;;5275033;27;20553;-74
2024/04/14 10:53:37;;;;;;;5.50;3.53;;;;;;;;;;5273944;27;20863;-74
2024/04/14 10:56:03;;;;;;;6.30;3.50;;;;;;;;;;5275844;27;20446;-74
2024/04/14 10:58:33;;;;;;;8.20;3.50;;;;;;;;;;5278446;27;20450;-74
2024/04/14 11:01:00;;;;;;;5.77;3.43;;;;;;;;;;5277709;27;20593;-74
2024/04/14 11:03:26;;;;;;;7.77;3.90;;;;;;;;;;5277987;27;21097;-75
2024/04/14 11:05:53;;;;;;;5.73;3.60;;;;;;;;;;5247817;27;20667;-74
2024/04/14 11:08:19;;;;;;;5.70;3.67;;;;;;;;;;5277595;27;20446;-73
2024/04/14 11:10:46;;;;;;;8.73;3.30;;;;;;;;;;5247165;27;20522;-74
2024/04/14 11:13:15;;;;;;;11.73;3.77;;;;;;;;;;5277512;27;20794;-74
2024/04/14 11:15:42;;;;;;;4.93;3.60;;;;;;;;;;5277005;27;20792;-74
2024/04/14 11:18:08;;;;;;;6.40;3.10;;;;;;;;;;5277603;27;20458;-74
2024/04/14 11:20:34;;;;;;;7.30;3.40;;;;;;;;;;5247074;27;20477;-75
2024/04/14 11:23:05;;;;;;;9.50;3.17;;;;;;;;;;5266368;27;20523;-74
2024/04/14 11:25:31;;;;;;;8.60;3.60;;;;;;;;;;5278102;27;21019;-73
2024/04/14 11:27:57;;;;;;;5.07;3.70;;;;;;;;;;5275563;27;21070;-74
2024/04/14 11:30:29;;;;;;;7.07;3.57;;;;;;;;;;5278431;27;20442;-74
2024/04/14 11:32:56;;;;;;;6.23;3.87;;;;;;;;;;5277878;27;20517;-75
2024/04/14 11:35:22;;;;;;;4.10;3.20;;;;;;;;;;5285269;27;20494;-74
2024/04/14 11:37:51;;;;;;;7.93;3.90;;;;;;;;;;5278509;27;20582;-74
2024/04/14 11:40:18;;;;;;;5.50;3.30;;;;;;;;;;5276575;27;20513;-74
2024/04/14 11:42:44;;;;;;;5.40;3.33;;;;;;;;;;5246551;27;20791;-75
2024/04/14 11:45:11;;;;;;;7.07;3.50;;;;;;;;;;5276894;27;20499;-73
2024/04/14 11:47:37;;;;;;;8.07;3.50;;;;;;;;;;5277123;27;20494;-73
2024/04/14 11:50:03;;;;;;;6.83;3.00;;;;;;;;;;5247772;27;20470;-74
2024/04/14 11:52:29;;;;;;;9.67;3.60;;;;;;;;;;5247291;27;20672;-74
2024/04/14 11:54:55;;;;;;;5.10;3.87;;;;;;;;;;5247081;27;20957;-74
2024/04/14 11:57:23;;;;;;;4.63;3.00;;;;;;;;;;5247599;27;20563;-74
2024/04/14 11:59:52;;;;;;;7.80;3.20;;;;;;;;;;5277749;27;20446;-74
2024/04/14 12:02:18;;;;;;;4.50;2.73;;;;;;;;;;5277624;27;20526;-74
2024/04/14 12:04:44;;;;;;;5.30;3.47;;;;;;;;;;5264207;27;20700;-74
2024/04/14 12:07:10;;;;;;;6.87;3.80;;;;;;;;;;5241688;27;20452;-74
2024/04/14 12:09:36;;;;;;;8.17;3.20;;;;;;;;;;5241666;27;21092;-74
2024/04/14 12:12:02;;;;;;;4.40;3.60;;;;;;;;;;5212049;27;20499;-74
2024/04/14 12:14:28;;;;;;;5.83;3.60;;;;;;;;;;5241899;27;20805;-74
2024/04/14 12:16:56;;;;;;;5.57;3.10;;;;;;;;;;5240909;27;20451;-74
2024/04/14 12:19:22;;;;;;;4.20;3.87;;;;;;;;;;5241601;27;20500;-74
2024/04/14 12:21:48;;;;;;;9.80;3.93;;;;;;;;;;5241920;27;20575;-74
2024/04/14 12:24:17;;;;;;;6.17;3.70;;;;;;;;;;5242219;27;20801;-75
2024/04/14 12:26:42;;;;;;;5.60;3.67;;;;;;;;;;5241063;27;20990;-74
2024/04/14 12:29:08;;;;;;;6.83;4.10;;;;;;;;;;5241476;27;20551;-74
2024/04/14 12:31:34;;;;;;;10.17;3.60;;;;;;;;;;5241537;27;20471;-74
2024/04/14 12:34:00;;;;;;;6.73;3.30;;;;;;;;;;5274517;27;20559;-74
2024/04/14 12:36:26;;;;;;;8.63;3.53;;;;;;;;;;5274433;27;20965;-74
2024/04/14 12:38:53;;;;;;;11.90;3.77;;;;;;;;;;5276047;27;20969;-74
2024/04/14 12:41:20;;;;;;;5.73;2.87;;;;;;;;;;5275865;27;20823;-74
2024/04/14 12:43:46;;;;;;;9.00;3.67;;;;;;;;;;5275252;27;20442;-74
2024/04/14 12:46:12;;;;;;;7.60;3.60;;;;;;;;;;5274407;27;20836;-74
2024/04/14 12:48:43;;;;;;;9.37;3.80;;;;;;;;;;5274822;27;20541;-74
2024/04/14 12:51:09;;;;;;;6.40;3.13;;;;;;;;;;5274918;27;20522;-74
2024/04/14 12:53:35;;;;;;;6.73;3.03;;;;;;;;;;5274750;27;20446;-74
2024/04/14 12:56:01;;;;;;;5.27;2.87;;;;;;;;;;5274899;27;20454;-73
2024/04/14 12:58:27;;;;;;;6.90;3.40;;;;;;;;;;5275330;27;20454;-75
2024/04/14 13:00:55;;;;;;;10.70;2.83;;;;;;;;;;5273607;27;20901;-75
2024/04/14 13:03:21;;;;;;;5.70;3.40;;;;;;;;;;5276119;27;20569;-75
2024/04/14 13:05:51;;;;;;;6.07;3.40;;;;;;;;;;5274682;27;20605;-75
2024/04/14 13:08:17;;;;;;;6.10;3.80;;;;;;;;;;5275703;27;20807;-75
2024/04/14 13:10:43;;;;;;;11.77;3.40;;;;;;;;;;5275382;27;20646;-75
2024/04/14 13:13:09;;;;;;;3.60;2.97;;;;;;;;;;5245133;27;21072;-75
2024/04/14 13:15:35;;;;;;;4.80;3.57;;;;;;;;;;5274327;27;20458;-75
2024/04/14 13:18:01;;;;;;;5.23;3.40;;;;;;;;;;5274874;27;20590;-75
2024/04/14 13:20:27;;;;;;;10.10;3.83;;;;;;;;;;5244975;27;20458;-75
2024/04/14 13:22:53;;;;;;;4.90;3.23;;;;;;;;;;5265602;27;20967;-74
2024/04/14 13:25:19;;;;;;;4.67;3.20;;;;;;;;;;5274090;27;20613;-75
2024/04/14 13:27:48;;;;;;;11.23;3.27;;;;;;;;;;5272382;27;20518;-75
2024/04/14 13:30:14;;;;;;;4.40;3.00;;;;;;;;;;5277169;27;21049;-75
2024/04/14 13:32:40;;;;;;;4.90;2.93;;;;;;;;;;5245603;27;20450;-75
2024/04/14 13:35:06;;;;;;;5.97;3.30;;;;;;;;;;5277291;27;20817;-75
2024/04/14 13:37:32;;;;;;;11.13;3.23;;;;;;;;;;5275914;27;20446;-75
2024/04/14 13:39:58;;;;;;;3.90;3.27;;;;;;;;;;5276367;27;20450;-75
2024/04/14 13:42:24;;;;;;;4.83;3.70;;;;;;;;;;5276694;27;20818;-76
2024/04/14 13:44:50;;;;;;;4.23;3.07;;;;;;;;;;5275463;27;20506;-76
2024/04/14 13:47:16;;;;;;;5.30;2.93;;;;;;;;;;5275008;27;20502;-76
2024/04/14 13:49:42;;;;;;;5.27;3.03;;;;;;;;;;5276776;27;20496;-75
2024/04/14 13:52:11;;;;;;;9.13;3.30;;;;;;;;;;5275333;27;20589;-76
2024/04/14 13:54:37;;;;;;;9.47;3.37;;;;;;;;;;5275531;27;20478;-76
2024/04/14 13:57:06;;;;;;;4.40;3.13;;;;;;;;;;5274173;27;20454;-75
2024/04/14 13:59:32;;;;;;;5.57;3.40;;;;;;;;;;5275406;27;20908;-75
2024/04/14 14:01:58;;;;;;;6.43;4.20;;;;;;;;;;5244297;27;20488;-75
2024/04/14 14:04:24;;;;;;;7.73;3.10;;;;;;;;;;5241581;27;20448;-75
2024/04/14 14:06:50;;;;;;;5.50;3.20;;;;;;;;;;5240768;27;20768;-75
2024/04/14 14:09:16;;;;;;;4.90;3.10;;;;;;;;;;5247102;27;20534;-73
2024/04/14 14:11:42;;;;;;;3.73;3.27;;;;;;;;;;5261518;27;20612;-75
2024/04/14 14:14:08;;;;;;;9.13;3.60;;;;;;;;;;5211735;27;20571;-75
2024/04/14 14:16:37;;;;;;;6.87;3.10;;;;;;;;;;5241186;27;20884;-75
2024/04/14 14:19:03;;;;;;;5.60;2.80;;;;;;;;;;5244499;27;20573;-75
2024/04/14 14:21:29;;;;;;;3.80;2.90;;;;;;;;;;5245108;27;20471;-75
2024/04/14 14:23:55;;;;;;;5.23;2.80;;;;;;;;;;5264681;27;20617;-75
2024/04/14 14:26:21;;;;;;;5.73;3.13;;;;;;;;;;5210977;27;20994;-74
2024/04/14 14:28:47;;;;;;;7.30;3.47;;;;;;;;;;5240871;27;20551;-73
2024/04/14 14:31:14;;;;;;;7.67;3.90;;;;;;;;;;5212310;27;20475;-73
2024/04/14 14:36:33;;;;;;;6.73;3.30;;;;;;;;;;5274783;27;20507;-73
2024/04/14 14:38:59;;;;;;;4.63;3.20;;;;;;;;;;5274981;27;20461;-74
2024/04/14 14:41:26;;;;;;;16.20;3.20;;;;;;;;;;5274819;27;20992;-73
2024/04/14 14:43:53;;;;;;;6.80;2.97;;;;;;;;;;5275166;27;20659;-73
2024/04/14 14:46:19;;;;;;;4.30;3.00;;;;;;;;;;5261144;27;20472;-74
2024/04/14 14:48:45;;;;;;;5.60;3.20;;;;;;;;;;5246647;27;20501;-73
2024/04/14 14:51:11;;;;;;;3.20;2.50;;;;;;;;;;5211379;27;20488;-74
2024/04/14 14:53:37;;;;;;;5.47;3.30;;;;;;;;;;5273697;27;20467;-73
2024/04/14 14:56:03;;;;;;;8.30;3.30;;;;;;;;;;5250494;27;20524;-73
2024/04/14 14:58:29;;;;;;;6.50;3.30;;;;;;;;;;5240750;27;20447;-74
2024/04/14 15:00:56;;;;;;;4.60;2.93;;;;;;;;;;5240635;27;20549;-74
2024/04/14 15:03:22;;;;;;;7.83;3.07;;;;;;;;;;5240585;27;20456;-74
2024/04/14 15:05:48;;;;;;;8.30;3.43;;;;;;;;;;5240721;27;20524;-74
2024/04/14 15:08:14;;;;;;;4.17;2.87;;;;;;;;;;5241031;27;21006;-74
2024/04/14 15:10:45;;;;;;;6.00;3.27;;;;;;;;;;5240546;27;20483;-74
2024/04/14 15:13:11;;;;;;;6.77;3.50;;;;;;;;;;5241079;27;20511;-75
2024/04/14 15:15:38;;;;;;;6.07;3.30;;;;;;;;;;5240179;27;20572;-75
2024/04/14 15:18:04;;;;;;;9.93;3.37;;;;;;;;;;5262236;27;20539;-75
2024/04/14 15:20:30;;;;;;;8.23;3.13;;;;;;;;;;5274156;27;20470;-74
2024/04/14 15:22:56;;;;;;;8.90;3.53;;;;;;;;;;5270549;27;20527;-74
2024/04/14 15:25:25;;;;;;;7.43;2.90;;;;;;;;;;5279460;27;20470;-74
2024/04/14 15:27:51;;;;;;;4.67;2.70;;;;;;;;;;5209971;27;20460;-75
2024/04/14 15:30:17;;;;;;;6.80;2.83;;;;;;;;;;5266964;27;20463;-75
2024/04/14 15:32:43;;;;;;;6.73;3.30;;;;;;;;;;5273466;27;20500;-75
2024/04/14 15:35:09;;;;;;;11.23;3.27;;;;;;;;;;5273055;27;20466;-74
2024/04/14 15:37:35;;;;;;;4.50;2.83;;;;;;;;;;5273897;27;20446;-75
2024/04/14 15:40:02;;;;;;;7.80;3.57;;;;;;;;;;5272571;27;20471;-75
2024/04/14 15:42:28;;;;;;;5.07;2.87;;;;;;;;;;5276135;27;20965;-75
2024/04/14 15:44:54;;;;;;;4.23;3.10;;;;;;;;;;5277613;27;20569;-74
2024/04/14 15:47:19;;;;;;;4.20;2.90;;;;;;;;;;5278095;27;20449;-75
2024/04/14 15:49:48;;;;;;;8.97;3.83;;;;;;;;;;5276161;27;21048;-75
2024/04/14 15:52:15;;;;;;;9.77;3.80;;;;;;;;;;5241861;27;20487;-75
2024/04/14 15:54:41;;;;;;;6.53;2.83;;;;;;;;;;5244410;27;20886;-74
2024/04/14 15:57:07;;;;;;;9.37;3.37;;;;;;;;;;5242936;27;20571;-74
2024/04/14 15:59:33;;;;;;;4.73;3.20;;;;;;;;;;5243244;27;20512;-74
2024/04/14 16:01:59;;;;;;;3.90;3.23;;;;;;;;;;5242804;27;20819;-74
2024/04/14 16:04:25;;;;;;;6.13;3.10;;;;;;;;;;5244332;27;20857;-74
2024/04/14 16:06:52;;;;;;;5.23;3.27;;;;;;;;;;5243458;27;20983;-74
2024/04/14 16:09:18;;;;;;;4.87;3.40;;;;;;;;;;5214387;27;20472;-74
2024/04/14 16:11:44;;;;;;;5.67;3.67;;;;;;;;;;5244347;27;20583;-74
2024/04/14 16:14:10;;;;;;;7.13;3.40;;;;;;;;;;5244375;27;20570;-74
2024/04/14 16:16:36;;;;;;;5.57;3.13;;;;;;;;;;5243475;27;20544;-74
2024/04/14 16:19:02;;;;;;;6.57;3.87;;;;;;;;;;5243655;27;20479;-74
2024/04/14 16:21:28;;;;;;;9.30;3.90;;;;;;;;;;5243544;27;20491;-74
2024/04/14 16:23:57;;;;;;;3.87;3.23;;;;;;;;;;5214483;27;20456;-75
2024/04/14 16:26:23;;;;;;;6.03;3.23;;;;;;;;;;5258473;27;20474;-74
2024/04/14 16:28:49;;;;;;;4.70;3.33;;;;;;;;;;5277248;27;20466;-74
2024/04/14 16:31:15;;;;;;;5.00;2.87;;;;;;;;;;5277472;27;20478;-74
2024/04/14 16:33:41;;;;;;;6.60;4.23;;;;;;;;;;5277698;27;20573;-74
2024/04/14 16:36:07;;;;;;;3.83;3.23;;;;;;;;;;5277282;27;20661;-74
2024/04/14 16:38:33;;;;;;;11.70;3.53;;;;;;;;;;5275811;27;20470;-74
2024/04/14 16:40:59;;;;;;;7.93;3.50;;;;;;;;;;5276533;27;20470;-73
2024/04/14 16:43:25;;;;;;;5.90;3.23;;;;;;;;;;5246085;27;20567;-74
2024/04/14 16:45:51;;;;;;;3.80;3.00;;;;;;;;;;5275958;27;20454;-74
2024/04/14 16:48:17;;;;;;;4.37;3.03;;;;;;;;;;5275868;27;20858;-74
2024/04/14 16:50:43;;;;;;;3.33;3.00;;;;;;;;;;5276992;27;21023;-74
2024/04/14 16:53:09;;;;;;;7.03;3.40;;;;;;;;;;5274790;27;20458;-74
2024/04/14 16:55:36;;;;;;;5.30;3.13;;;;;;;;;;5275660;27;20475;-73
2024/04/14 16:58:02;;;;;;;6.33;3.20;;;;;;;;;;5275719;27;20470;-74
2024/04/14 17:00:29;;;;;;;10.07;3.00;;;;;;;;;;5247031;27;20470;-73
2024/04/14 17:02:56;;;;;;;6.53;2.90;;;;;;;;;;5276837;27;20454;-73
2024/04/14 17:05:22;;;;;;;6.10;3.20;;;;;;;;;;5246460;27;20458;-74
2024/04/14 17:07:48;;;;;;;5.23;2.83;;;;;;;;;;5276259;27;20454;-73
2024/04/14 17:10:14;;;;;;;7.40;3.50;;;;;;;;;;5260299;27;20532;-74
2024/04/14 17:12:40;;;;;;;9.90;3.70;;;;;;;;;;5241498;27;20837;-74
2024/04/14 17:15:07;;;;;;;5.93;3.10;;;;;;;;;;5277957;21;20637;-72
2024/04/14 17:17:33;;;;;;;4.17;3.23;;;;;;;;;;5275661;27;20958;-72
2024/04/14 17:20:00;;;;;;;9.23;3.10;;;;;;;;;;5276340;27;20462;-71
2024/04/14 17:22:26;;;;;;;7.77;3.50;;;;;;;;;;5247803;27;20906;-74
2024/04/14 17:24:52;;;;;;;4.30;2.73;;;;;;;;;;5268958;27;20508;-74
2024/04/14 17:27:17;;;;;;;6.97;3.20;;;;;;;;;;5296248;27;21011;-73
2024/04/14 17:29:43;;;;;;;9.10;3.53;;;;;;;;;;5312016;27;21018;-73
2024/04/14 17:32:09;;;;;;;4.83;3.40;;;;;;;;;;5316178;27;20545;-73
2024/04/14 17:34:35;;;;;;;6.20;3.13;;;;;;;;;;5284112;27;20858;-72
2024/04/14 17:37:01;;;;;;;6.40;3.47;;;;;;;;;;5249134;27;20530;-74
2024/04/14 17:39:27;;;;;;;6.70;3.93;;;;;;;;;;5252815;27;20451;-73
2024/04/14 17:41:56;;;;;;;9.13;3.63;;;;;;;;;;5257805;27;20466;-74
2024/04/14 17:44:22;;;;;;;5.33;3.60;;;;;;;;;;5284606;27;20454;-74
2024/04/14 17:46:48;;;;;;;4.50;3.30;;;;;;;;;;5270665;27;20542;-74
2024/04/14 17:49:14;;;;;;;6.20;3.50;;;;;;;;;;5281801;27;20458;-74
2024/04/14 17:51:43;;;;;;;5.07;2.97;;;;;;;;;;5284669;27;20498;-74
2024/04/14 17:54:12;;;;;;;4.40;3.13;;;;;;;;;;5267869;27;20795;-74
2024/04/14 17:56:38;;;;;;;6.37;2.93;;;;;;;;;;5260560;27;21092;-73
2024/04/14 17:59:04;;;;;;;5.87;3.60;;;;;;;;;;5280919;27;20462;-74
2024/04/14 18:01:30;;;;;;;11.07;4.30;;;;;;;;;;5279629;27;20553;-73
2024/04/14 18:03:59;;;;;;;5.43;3.70;;;;;;;;;;5277923;27;20477;-74
2024/04/14 18:06:25;;;;;;;7.60;4.30;;;;;;;;;;5250254;27;20803;-74
2024/04/14 18:08:51;;;;;;;7.53;3.43;;;;;;;;;;5279124;27;21069;-73
2024/04/14 18:11:17;;;;;;;7.73;3.13;;;;;;;;;;5248356;27;20466;-74
2024/04/14 18:13:43;;;;;;;7.60;3.83;;;;;;;;;;5279776;27;21077;-73
2024/04/14 18:16:10;;;;;;;4.00;2.83;;;;;;;;;;5258754;27;20472;-73
2024/04/14 18:18:36;;;;;;;9.70;3.40;;;;;;;;;;5214407;27;20960;-73
2024/04/14 18:21:02;;;;;;;9.40;3.10;;;;;;;;;;5243350;27;20439;-73
2024/04/14 18:23:29;;;;;;;6.57;2.90;;;;;;;;;;5242471;27;20471;-73
2024/04/14 18:25:55;;;;;;;7.07;2.90;;;;;;;;;;5241919;27;20471;-75
2024/04/14 18:28:21;;;;;;;11.40;3.30;;;;;;;;;;5242626;27;20472;-73
2024/04/14 18:30:47;;;;;;;8.63;3.23;;;;;;;;;;5243254;27;20578;-72
2024/04/14 18:33:13;;;;;;;5.90;3.83;;;;;;;;;;5243038;27;20508;-74
2024/04/14 18:35:39;;;;;;;5.57;3.10;;;;;;;;;;5242882;27;20488;-72
2024/04/14 18:38:05;;;;;;;5.30;2.90;;;;;;;;;;5242869;27;20591;-73
2024/04/14 18:40:31;;;;;;;7.37;3.23;;;;;;;;;;5242776;27;20483;-73
2024/04/14 18:42:57;;;;;;;3.83;2.67;;;;;;;;;;5214367;27;20508;-74
2024/04/14 18:45:23;;;;;;;3.90;2.47;;;;;;;;;;5212684;27;21025;-72
2024/04/14 18:47:49;;;;;;;3.70;2.70;;;;;;;;;;5242243;27;20456;-73
2024/04/14 18:50:15;;;;;;;4.50;2.53;;;;;;;;;;5243406;27;20502;-74
2024/04/14 18:52:41;;;;;;;7.50;3.20;;;;;;;;;;5242990;27;20483;-72
2024/04/14 18:55:07;;;;;;;5.73;2.97;;;;;;;;;;5241921;27;20483;-73
2024/04/14 18:57:33;;;;;;;6.70;3.03;;;;;;;;;;5241869;27;20459;-73
2024/04/14 18:59:59;;;;;;;3.10;2.63;;;;;;;;;;5243689;27;20599;-72
2024/04/14 19:02:25;;;;;;;4.97;2.80;;;;;;;;;;5242078;27;20452;-72
2024/04/14 19:04:51;;;;;;;4.00;2.97;;;;;;;;;;5242410;27;20477;-72
2024/04/14 19:07:17;;;;;;;4.47;3.10;;;;;;;;;;5241713;27;20477;-72
2024/04/14 19:09:43;;;;;;;5.73;3.13;;;;;;;;;;5241765;27;20459;-72
2024/04/14 19:12:10;;;;;;;6.80;3.53;;;;;;;;;;5242062;27;20549;-72
2024/04/14 19:14:36;;;;;;;4.40;2.93;;;;;;;;;;5212343;27;20539;-71
2024/04/14 19:17:02;;;;;;;16.03;4.23;;;;;;;;;;5243221;27;20475;-72
2024/04/14 19:19:28;;;;;;;11.43;3.27;;;;;;;;;;5245493;27;20523;-72
2024/04/14 19:21:54;;;;;;;6.40;2.90;;;;;;;;;;5245257;27;21034;-73
2024/04/14 19:24:20;;;;;;;8.10;3.33;;;;;;;;;;5249436;27;20574;-74
2024/04/14 19:26:45;;;;;;;6.70;3.10;;;;;;;;;;5274468;27;20585;-73
2024/04/14 19:29:12;;;;;;;7.50;3.60;;;;;;;;;;5278271;27;20985;-73
2024/04/14 19:31:39;;;;;;;7.40;3.23;;;;;;;;;;5277507;27;20446;-74
2024/04/14 19:34:06;;;;;;;6.10;2.83;;;;;;;;;;5279132;27;20513;-74
2024/04/14 19:36:32;;;;;;;9.00;3.13;;;;;;;;;;5278036;27;20478;-73